Weather at Dortmund Airport

Public forecast

Using degrees Celsius for public forecast. Weather courtesy of forecast.io.

Current aviation weather report (METAR) for Dortmund Airport

2024/05/26 14:50 (retrieved 33 minutes ago)

EDLW 261450Z 19007KT 170V230 9999 FEW44CB 22/10 Q1014

Aviation forecast (TAF) for Dortmund Airport

2024/05/26 14:20 Ammendment (retrieved 1 hour ago)

TAF AMD EDLW 261412Z 2614/2712 17008KT CAVOK TEMPO 2615/2621 19015G30KT SHRA BKN040CB PROB30 TEMPO 2615/2621 22020G35KT 4500 TSRA BKN030CB BECMG 2700/2703 VRB03KT